首页
METAR-TAF:

METAR-TAF

机场 :

Figari, 法国

纬度: 41-30N, 经度: 009-06E, 海拔: 26米

当前天气观测

该预报发布于28分钟前的09:30 UTC
静风
温度 14°C
湿度 94%
气压 1012 hPa
能见度10公里或以上
少量云层高于2900英尺
散云层高于22000英尺

METAR: LFKF 220930Z AUTO 00000KT 9999 FEW029 SCT220 14/13 Q1012 NOSIG

时间: 10:58 (09:58 UTC)

预报

该预报发布于1小时和58分钟前的08:00 UTC
预报有效从22日的 09点(UTC)到 23日的 09点(UTC)
风速3节,风向多变
能见度10公里或以上
多云层高于2500英尺
多云层高于5000英尺
成为
从 22日的 17点(UTC)到 22日的 18点(UTC)
风速10节,风向东转东北
短暂存在
从 22日的 15点(UTC)到 23日的 09点(UTC)
少量云层高于3500英尺, 塔状积云.

TAF: LFKF 220800Z 2209/2309 VRB03KT 9999 BKN025 BKN050 BECMG 2217/2218 06010KT TEMPO 2215/2309 RA FEW035TCU

超过4000个机场的气象观测和天气预报(METAR&TAF报告)。

可查询的气象台以黄色和红色小点在地图上表示。

将鼠标移到小点上方,可查看气象台名称。

然后点击查看天气观测和预报。

如需切换地图:点击带黑十字的绿色按钮放大地图;点击带横线的绿色按钮缩小地图;或者点击绿色箭头查看邻近地区的地图。


METAR-TAF: